sensor_id;sensor_type;location;lat;lon;timestamp;temperature;humidity
13464;DHT22;6804;48.774;9.174;2024-01-16T00:00:05;2.60;99.90
13464;DHT22;6804;48.774;9.174;2024-01-16T00:02:35;2.60;99.90
13464;DHT22;6804;48.774;9.174;2024-01-16T00:05:03;2.60;99.90
13464;DHT22;6804;48.774;9.174;2024-01-16T00:07:30;2.60;99.90
13464;DHT22;6804;48.774;9.174;2024-01-16T00:10:01;2.60;99.90
13464;DHT22;6804;48.774;9.174;2024-01-16T00:12:29;2.60;99.90
13464;DHT22;6804;48.774;9.174;2024-01-16T00:14:58;2.60;99.90
13464;DHT22;6804;48.774;9.174;2024-01-16T00:17:28;2.60;99.90
13464;DHT22;6804;48.774;9.174;2024-01-16T00:19:56;2.60;99.90
13464;DHT22;6804;48.774;9.174;2024-01-16T00:22:29;2.60;99.90
13464;DHT22;6804;48.774;9.174;2024-01-16T00:25:00;2.50;99.90
13464;DHT22;6804;48.774;9.174;2024-01-16T00:27:27;2.50;99.90
13464;DHT22;6804;48.774;9.174;2024-01-16T00:29:55;2.50;99.90
13464;DHT22;6804;48.774;9.174;2024-01-16T00:32:24;2.60;99.90
13464;DHT22;6804;48.774;9.174;2024-01-16T00:34:51;2.60;99.90
13464;DHT22;6804;48.774;9.174;2024-01-16T00:37:19;2.60;99.90
13464;DHT22;6804;48.774;9.174;2024-01-16T00:39:48;2.60;99.90
13464;DHT22;6804;48.774;9.174;2024-01-16T00:42:16;2.50;99.90
13464;DHT22;6804;48.774;9.174;2024-01-16T00:44:43;2.50;99.90
13464;DHT22;6804;48.774;9.174;2024-01-16T00:47:12;2.60;99.90
13464;DHT22;6804;48.774;9.174;2024-01-16T00:49:40;2.50;99.90
13464;DHT22;6804;48.774;9.174;2024-01-16T00:52:08;2.50;99.90
13464;DHT22;6804;48.774;9.174;2024-01-16T00:54:35;2.50;99.90
13464;DHT22;6804;48.774;9.174;2024-01-16T00:57:05;2.40;99.90
13464;DHT22;6804;48.774;9.174;2024-01-16T00:59:33;2.40;99.90
13464;DHT22;6804;48.774;9.174;2024-01-16T01:02:00;2.30;99.90
13464;DHT22;6804;48.774;9.174;2024-01-16T01:04:29;2.40;99.90
13464;DHT22;6804;48.774;9.174;2024-01-16T01:07:16;2.40;99.90
13464;DHT22;6804;48.774;9.174;2024-01-16T01:10:05;2.40;99.90
13464;DHT22;6804;48.774;9.174;2024-01-16T01:12:33;2.40;99.90
13464;DHT22;6804;48.774;9.174;2024-01-16T01:15:19;2.40;99.90
13464;DHT22;6804;48.774;9.174;2024-01-16T01:17:50;2.40;99.90
13464;DHT22;6804;48.774;9.174;2024-01-16T01:20:20;2.40;99.90
13464;DHT22;6804;48.774;9.174;2024-01-16T01:22:53;2.40;99.90
13464;DHT22;6804;48.774;9.174;2024-01-16T01:25:21;2.40;99.90
13464;DHT22;6804;48.774;9.174;2024-01-16T01:27:50;2.40;99.90
13464;DHT22;6804;48.774;9.174;2024-01-16T01:30:21;2.40;99.90
13464;DHT22;6804;48.774;9.174;2024-01-16T01:32:48;2.40;99.90
13464;DHT22;6804;48.774;9.174;2024-01-16T01:35:17;2.40;99.90
13464;DHT22;6804;48.774;9.174;2024-01-16T01:37:45;2.40;99.90
13464;DHT22;6804;48.774;9.174;2024-01-16T01:40:20;2.40;99.90
13464;DHT22;6804;48.774;9.174;2024-01-16T01:42:49;2.40;99.90
13464;DHT22;6804;48.774;9.174;2024-01-16T01:45:35;2.40;99.90
13464;DHT22;6804;48.774;9.174;2024-01-16T01:48:06;2.40;99.90
13464;DHT22;6804;48.774;9.174;2024-01-16T01:50:41;2.40;99.90
13464;DHT22;6804;48.774;9.174;2024-01-16T01:53:09;2.40;99.90
13464;DHT22;6804;48.774;9.174;2024-01-16T01:55:45;2.40;99.90
13464;DHT22;6804;48.774;9.174;2024-01-16T01:58:15;2.40;99.90
13464;DHT22;6804;48.774;9.174;2024-01-16T02:00:42;2.40;99.90
13464;DHT22;6804;48.774;9.174;2024-01-16T02:03:11;2.40;99.90
13464;DHT22;6804;48.774;9.174;2024-01-16T02:05:38;2.40;99.90
13464;DHT22;6804;48.774;9.174;2024-01-16T02:08:09;2.40;99.90
13464;DHT22;6804;48.774;9.174;2024-01-16T02:10:38;2.40;99.90
13464;DHT22;6804;48.774;9.174;2024-01-16T02:13:08;2.40;99.90
13464;DHT22;6804;48.774;9.174;2024-01-16T02:15:40;2.40;99.90
13464;DHT22;6804;48.774;9.174;2024-01-16T02:18:09;2.40;99.90
13464;DHT22;6804;48.774;9.174;2024-01-16T02:20:40;2.40;99.90
13464;DHT22;6804;48.774;9.174;2024-01-16T02:23:09;2.40;99.90
13464;DHT22;6804;48.774;9.174;2024-01-16T02:25:38;2.40;99.90
13464;DHT22;6804;48.774;9.174;2024-01-16T02:28:06;2.30;99.90
13464;DHT22;6804;48.774;9.174;2024-01-16T02:30:33;2.30;99.90
13464;DHT22;6804;48.774;9.174;2024-01-16T02:33:00;2.30;99.90
13464;DHT22;6804;48.774;9.174;2024-01-16T02:35:29;2.20;99.90
13464;DHT22;6804;48.774;9.174;2024-01-16T02:37:56;2.20;99.90
13464;DHT22;6804;48.774;9.174;2024-01-16T02:40:26;2.10;99.90
13464;DHT22;6804;48.774;9.174;2024-01-16T02:42:54;2.10;99.90
13464;DHT22;6804;48.774;9.174;2024-01-16T02:45:22;2.00;99.90
13464;DHT22;6804;48.774;9.174;2024-01-16T02:47:56;2.00;99.90
13464;DHT22;6804;48.774;9.174;2024-01-16T02:50:26;2.00;99.90
13464;DHT22;6804;48.774;9.174;2024-01-16T02:52:53;2.00;99.90
13464;DHT22;6804;48.774;9.174;2024-01-16T02:55:21;2.00;99.90
13464;DHT22;6804;48.774;9.174;2024-01-16T02:57:48;2.00;99.90
13464;DHT22;6804;48.774;9.174;2024-01-16T03:00:22;2.00;99.90
13464;DHT22;6804;48.774;9.174;2024-01-16T03:02:50;2.00;99.90
13464;DHT22;6804;48.774;9.174;2024-01-16T03:05:17;2.00;99.90
13464;DHT22;6804;48.774;9.174;2024-01-16T03:07:44;2.00;99.90
13464;DHT22;6804;48.774;9.174;2024-01-16T03:10:11;2.00;99.90
13464;DHT22;6804;48.774;9.174;2024-01-16T03:12:39;1.90;99.90
13464;DHT22;6804;48.774;9.174;2024-01-16T03:15:07;1.90;99.90
13464;DHT22;6804;48.774;9.174;2024-01-16T03:17:35;1.90;99.90
13464;DHT22;6804;48.774;9.174;2024-01-16T03:20:03;1.80;99.90
13464;DHT22;6804;48.774;9.174;2024-01-16T03:22:32;1.90;99.90
13464;DHT22;6804;48.774;9.174;2024-01-16T03:25:00;1.80;99.90
13464;DHT22;6804;48.774;9.174;2024-01-16T03:27:28;1.80;99.90
13464;DHT22;6804;48.774;9.174;2024-01-16T03:29:56;1.80;99.90
13464;DHT22;6804;48.774;9.174;2024-01-16T03:32:23;1.80;99.90
13464;DHT22;6804;48.774;9.174;2024-01-16T03:34:52;1.90;99.90
13464;DHT22;6804;48.774;9.174;2024-01-16T03:37:19;1.80;99.90
13464;DHT22;6804;48.774;9.174;2024-01-16T03:39:49;1.70;99.90
13464;DHT22;6804;48.774;9.174;2024-01-16T03:42:17;1.70;99.90
13464;DHT22;6804;48.774;9.174;2024-01-16T03:44:44;1.70;99.90
13464;DHT22;6804;48.774;9.174;2024-01-16T03:47:11;1.70;99.90
13464;DHT22;6804;48.774;9.174;2024-01-16T03:49:38;1.70;99.90
13464;DHT22;6804;48.774;9.174;2024-01-16T03:52:07;1.70;99.90
13464;DHT22;6804;48.774;9.174;2024-01-16T03:54:34;1.80;99.90
13464;DHT22;6804;48.774;9.174;2024-01-16T03:57:05;1.80;99.90
13464;DHT22;6804;48.774;9.174;2024-01-16T03:59:32;1.70;99.90
13464;DHT22;6804;48.774;9.174;2024-01-16T04:02:01;1.70;99.90
13464;DHT22;6804;48.774;9.174;2024-01-16T04:04:29;1.80;99.90
13464;DHT22;6804;48.774;9.174;2024-01-16T04:06:57;1.70;99.90
13464;DHT22;6804;48.774;9.174;2024-01-16T04:09:26;1.70;99.90
13464;DHT22;6804;48.774;9.174;2024-01-16T04:11:53;1.70;99.90
13464;DHT22;6804;48.774;9.174;2024-01-16T04:14:27;1.70;99.90
13464;DHT22;6804;48.774;9.174;2024-01-16T04:16:54;1.70;99.90
13464;DHT22;6804;48.774;9.174;2024-01-16T04:19:21;1.70;99.90
13464;DHT22;6804;48.774;9.174;2024-01-16T04:21:52;1.60;99.90
13464;DHT22;6804;48.774;9.174;2024-01-16T04:24:19;1.60;99.90
13464;DHT22;6804;48.774;9.174;2024-01-16T04:26:48;1.60;99.90
13464;DHT22;6804;48.774;9.174;2024-01-16T04:29:18;1.60;99.90
13464;DHT22;6804;48.774;9.174;2024-01-16T04:31:45;1.50;99.90
13464;DHT22;6804;48.774;9.174;2024-01-16T04:34:15;1.50;99.90
13464;DHT22;6804;48.774;9.174;2024-01-16T04:36:48;1.50;99.90
13464;DHT22;6804;48.774;9.174;2024-01-16T04:39:15;1.60;99.90
13464;DHT22;6804;48.774;9.174;2024-01-16T04:41:45;1.60;99.90
13464;DHT22;6804;48.774;9.174;2024-01-16T04:44:13;1.60;99.90
13464;DHT22;6804;48.774;9.174;2024-01-16T04:46:44;1.60;99.90
13464;DHT22;6804;48.774;9.174;2024-01-16T04:49:17;1.50;99.90
13464;DHT22;6804;48.774;9.174;2024-01-16T04:51:48;1.50;99.90
13464;DHT22;6804;48.774;9.174;2024-01-16T04:54:18;1.50;99.90
13464;DHT22;6804;48.774;9.174;2024-01-16T04:56:46;1.50;99.90
13464;DHT22;6804;48.774;9.174;2024-01-16T04:59:17;1.50;99.90
13464;DHT22;6804;48.774;9.174;2024-01-16T05:01:46;1.60;99.90
13464;DHT22;6804;48.774;9.174;2024-01-16T05:04:14;1.60;99.90
13464;DHT22;6804;48.774;9.174;2024-01-16T05:06:44;1.50;99.90
13464;DHT22;6804;48.774;9.174;2024-01-16T05:09:12;1.60;99.90
13464;DHT22;6804;48.774;9.174;2024-01-16T05:11:39;1.60;99.90
13464;DHT22;6804;48.774;9.174;2024-01-16T05:14:08;1.50;99.90
13464;DHT22;6804;48.774;9.174;2024-01-16T05:16:36;1.60;99.90
13464;DHT22;6804;48.774;9.174;2024-01-16T05:19:04;1.60;99.90
13464;DHT22;6804;48.774;9.174;2024-01-16T05:21:31;1.60;99.90
13464;DHT22;6804;48.774;9.174;2024-01-16T05:23:58;1.60;99.90
13464;DHT22;6804;48.774;9.174;2024-01-16T05:26:27;1.60;99.90
13464;DHT22;6804;48.774;9.174;2024-01-16T05:28:55;1.60;99.90
13464;DHT22;6804;48.774;9.174;2024-01-16T05:31:22;1.60;99.90
13464;DHT22;6804;48.774;9.174;2024-01-16T05:33:52;1.50;99.90
13464;DHT22;6804;48.774;9.174;2024-01-16T05:36:26;1.50;99.90
13464;DHT22;6804;48.774;9.174;2024-01-16T05:38:57;1.50;99.90
13464;DHT22;6804;48.774;9.174;2024-01-16T05:41:26;1.50;99.90
13464;DHT22;6804;48.774;9.174;2024-01-16T05:44:01;1.50;99.90
13464;DHT22;6804;48.774;9.174;2024-01-16T05:46:34;1.30;99.90
13464;DHT22;6804;48.774;9.174;2024-01-16T05:49:08;1.30;99.90
13464;DHT22;6804;48.774;9.174;2024-01-16T05:51:36;1.40;99.90
13464;DHT22;6804;48.774;9.174;2024-01-16T05:54:08;1.30;99.90
13464;DHT22;6804;48.774;9.174;2024-01-16T05:56:36;1.20;99.90
13464;DHT22;6804;48.774;9.174;2024-01-16T05:59:03;1.10;99.90
13464;DHT22;6804;48.774;9.174;2024-01-16T06:01:32;1.00;99.90
13464;DHT22;6804;48.774;9.174;2024-01-16T06:04:00;0.90;99.90
13464;DHT22;6804;48.774;9.174;2024-01-16T06:06:28;0.90;99.90
13464;DHT22;6804;48.774;9.174;2024-01-16T06:09:01;0.90;99.90
13464;DHT22;6804;48.774;9.174;2024-01-16T06:11:31;0.90;99.90
13464;DHT22;6804;48.774;9.174;2024-01-16T06:13:59;1.00;99.90
13464;DHT22;6804;48.774;9.174;2024-01-16T06:16:44;1.10;99.90
13464;DHT22;6804;48.774;9.174;2024-01-16T06:19:18;1.10;99.90
13464;DHT22;6804;48.774;9.174;2024-01-16T06:21:50;1.10;99.90
13464;DHT22;6804;48.774;9.174;2024-01-16T06:24:17;1.10;99.90
13464;DHT22;6804;48.774;9.174;2024-01-16T06:26:47;1.00;99.90
13464;DHT22;6804;48.774;9.174;2024-01-16T06:29:17;1.00;99.90
13464;DHT22;6804;48.774;9.174;2024-01-16T06:31:45;1.10;99.90
13464;DHT22;6804;48.774;9.174;2024-01-16T06:34:34;1.10;99.90
13464;DHT22;6804;48.774;9.174;2024-01-16T06:37:06;1.10;99.90
13464;DHT22;6804;48.774;9.174;2024-01-16T06:39:34;1.10;99.90
13464;DHT22;6804;48.774;9.174;2024-01-16T06:42:02;1.00;99.90
13464;DHT22;6804;48.774;9.174;2024-01-16T06:44:31;1.00;99.90
13464;DHT22;6804;48.774;9.174;2024-01-16T06:47:00;1.00;99.90
13464;DHT22;6804;48.774;9.174;2024-01-16T06:49:27;1.00;99.90
13464;DHT22;6804;48.774;9.174;2024-01-16T06:51:58;1.10;99.90
13464;DHT22;6804;48.774;9.174;2024-01-16T06:54:27;1.20;99.90
13464;DHT22;6804;48.774;9.174;2024-01-16T07:00:01;1.20;99.90
13464;DHT22;6804;48.774;9.174;2024-01-16T07:02:31;1.20;99.90
13464;DHT22;6804;48.774;9.174;2024-01-16T07:05:01;1.10;99.90
13464;DHT22;6804;48.774;9.174;2024-01-16T07:07:31;1.10;99.90
13464;DHT22;6804;48.774;9.174;2024-01-16T07:10:06;1.00;99.90
13464;DHT22;6804;48.774;9.174;2024-01-16T07:12:41;1.00;99.90
13464;DHT22;6804;48.774;9.174;2024-01-16T07:15:10;1.00;99.90
13464;DHT22;6804;48.774;9.174;2024-01-16T07:17:40;1.00;99.90
13464;DHT22;6804;48.774;9.174;2024-01-16T07:20:10;1.00;99.90
13464;DHT22;6804;48.774;9.174;2024-01-16T07:22:39;1.00;99.90
13464;DHT22;6804;48.774;9.174;2024-01-16T07:25:29;1.00;99.90
13464;DHT22;6804;48.774;9.174;2024-01-16T07:27:59;1.00;99.90
13464;DHT22;6804;48.774;9.174;2024-01-16T07:30:31;1.00;99.90
13464;DHT22;6804;48.774;9.174;2024-01-16T07:32:59;1.00;99.90
13464;DHT22;6804;48.774;9.174;2024-01-16T07:35:29;1.00;99.90
13464;DHT22;6804;48.774;9.174;2024-01-16T07:38:01;1.10;99.90
13464;DHT22;6804;48.774;9.174;2024-01-16T07:40:30;1.20;99.90
13464;DHT22;6804;48.774;9.174;2024-01-16T07:43:01;1.20;99.90
13464;DHT22;6804;48.774;9.174;2024-01-16T07:45:30;1.20;99.90
13464;DHT22;6804;48.774;9.174;2024-01-16T07:47:59;1.20;99.90
13464;DHT22;6804;48.774;9.174;2024-01-16T07:50:29;1.30;99.90
13464;DHT22;6804;48.774;9.174;2024-01-16T07:52:58;1.30;99.90
13464;DHT22;6804;48.774;9.174;2024-01-16T07:55:26;1.40;99.90
13464;DHT22;6804;48.774;9.174;2024-01-16T07:58:01;1.40;99.90
13464;DHT22;6804;48.774;9.174;2024-01-16T08:00:32;1.30;99.90
13464;DHT22;6804;48.774;9.174;2024-01-16T08:03:02;1.30;99.90
13464;DHT22;6804;48.774;9.174;2024-01-16T08:05:30;1.30;99.90
13464;DHT22;6804;48.774;9.174;2024-01-16T08:07:59;1.40;99.90
13464;DHT22;6804;48.774;9.174;2024-01-16T08:10:30;1.30;99.90
13464;DHT22;6804;48.774;9.174;2024-01-16T08:13:03;1.30;99.90
13464;DHT22;6804;48.774;9.174;2024-01-16T08:15:31;1.30;99.90
13464;DHT22;6804;48.774;9.174;2024-01-16T08:17:59;1.30;99.90
13464;DHT22;6804;48.774;9.174;2024-01-16T08:20:27;1.30;99.90
13464;DHT22;6804;48.774;9.174;2024-01-16T08:22:55;1.40;99.90
13464;DHT22;6804;48.774;9.174;2024-01-16T08:25:22;1.40;99.90
13464;DHT22;6804;48.774;9.174;2024-01-16T08:27:51;1.50;99.90
13464;DHT22;6804;48.774;9.174;2024-01-16T08:30:24;1.50;99.90
13464;DHT22;6804;48.774;9.174;2024-01-16T08:32:55;1.50;99.90
13464;DHT22;6804;48.774;9.174;2024-01-16T08:35:24;1.60;99.90
13464;DHT22;6804;48.774;9.174;2024-01-16T08:38:15;1.60;99.90
13464;DHT22;6804;48.774;9.174;2024-01-16T08:40:43;1.70;99.90
13464;DHT22;6804;48.774;9.174;2024-01-16T08:43:14;1.70;99.90
13464;DHT22;6804;48.774;9.174;2024-01-16T08:45:44;1.70;99.90
13464;DHT22;6804;48.774;9.174;2024-01-16T08:48:14;1.80;99.90
13464;DHT22;6804;48.774;9.174;2024-01-16T08:50:42;1.80;99.90
13464;DHT22;6804;48.774;9.174;2024-01-16T08:53:10;1.80;99.90
13464;DHT22;6804;48.774;9.174;2024-01-16T08:55:38;1.90;99.90
13464;DHT22;6804;48.774;9.174;2024-01-16T08:58:09;1.90;99.90
13464;DHT22;6804;48.774;9.174;2024-01-16T09:00:37;2.00;99.90
13464;DHT22;6804;48.774;9.174;2024-01-16T09:03:06;2.00;99.90
13464;DHT22;6804;48.774;9.174;2024-01-16T09:05:36;2.00;99.90
13464;DHT22;6804;48.774;9.174;2024-01-16T09:08:04;2.00;99.90
13464;DHT22;6804;48.774;9.174;2024-01-16T09:10:32;2.10;99.90
13464;DHT22;6804;48.774;9.174;2024-01-16T09:13:00;2.10;99.90
13464;DHT22;6804;48.774;9.174;2024-01-16T09:15:34;2.10;99.90
13464;DHT22;6804;48.774;9.174;2024-01-16T09:18:03;2.20;99.90
13464;DHT22;6804;48.774;9.174;2024-01-16T09:20:36;2.30;99.90
13464;DHT22;6804;48.774;9.174;2024-01-16T09:23:03;2.30;99.90
13464;DHT22;6804;48.774;9.174;2024-01-16T09:25:34;2.40;99.90
13464;DHT22;6804;48.774;9.174;2024-01-16T09:28:02;2.40;99.90
13464;DHT22;6804;48.774;9.174;2024-01-16T09:30:31;2.50;99.90
13464;DHT22;6804;48.774;9.174;2024-01-16T09:32:59;2.50;99.90
13464;DHT22;6804;48.774;9.174;2024-01-16T09:35:38;2.60;99.90
13464;DHT22;6804;48.774;9.174;2024-01-16T09:38:05;2.60;99.90
13464;DHT22;6804;48.774;9.174;2024-01-16T09:40:33;2.60;99.90
13464;DHT22;6804;48.774;9.174;2024-01-16T09:43:06;2.70;99.90
13464;DHT22;6804;48.774;9.174;2024-01-16T09:45:37;2.70;99.90
13464;DHT22;6804;48.774;9.174;2024-01-16T09:48:06;2.80;99.90
13464;DHT22;6804;48.774;9.174;2024-01-16T09:50:35;2.90;99.90
13464;DHT22;6804;48.774;9.174;2024-01-16T09:53:07;2.90;99.90
13464;DHT22;6804;48.774;9.174;2024-01-16T09:55:35;3.00;99.90
13464;DHT22;6804;48.774;9.174;2024-01-16T09:58:05;3.10;99.90
13464;DHT22;6804;48.774;9.174;2024-01-16T10:00:38;3.20;99.90
13464;DHT22;6804;48.774;9.174;2024-01-16T10:03:11;3.30;99.90
13464;DHT22;6804;48.774;9.174;2024-01-16T10:05:43;3.30;99.90
13464;DHT22;6804;48.774;9.174;2024-01-16T10:08:14;3.40;99.90
13464;DHT22;6804;48.774;9.174;2024-01-16T10:10:44;3.40;99.90
13464;DHT22;6804;48.774;9.174;2024-01-16T10:13:33;3.50;99.90
13464;DHT22;6804;48.774;9.174;2024-01-16T10:16:03;3.40;99.90
13464;DHT22;6804;48.774;9.174;2024-01-16T10:18:34;3.50;99.90
13464;DHT22;6804;48.774;9.174;2024-01-16T10:21:04;3.60;99.90
13464;DHT22;6804;48.774;9.174;2024-01-16T10:23:35;3.70;99.90
13464;DHT22;6804;48.774;9.174;2024-01-16T10:26:06;3.80;99.90
13464;DHT22;6804;48.774;9.174;2024-01-16T10:28:34;3.90;99.90
13464;DHT22;6804;48.774;9.174;2024-01-16T10:31:03;4.00;99.90
13464;DHT22;6804;48.774;9.174;2024-01-16T10:33:33;4.10;99.90
13464;DHT22;6804;48.774;9.174;2024-01-16T10:36:10;4.10;99.90
13464;DHT22;6804;48.774;9.174;2024-01-16T10:38:46;4.10;99.90
13464;DHT22;6804;48.774;9.174;2024-01-16T10:41:17;4.10;99.90
13464;DHT22;6804;48.774;9.174;2024-01-16T10:43:47;4.10;99.90
13464;DHT22;6804;48.774;9.174;2024-01-16T10:46:17;4.20;99.90
13464;DHT22;6804;48.774;9.174;2024-01-16T10:48:59;4.30;99.90
13464;DHT22;6804;48.774;9.174;2024-01-16T10:51:28;4.50;99.90
13464;DHT22;6804;48.774;9.174;2024-01-16T10:54:03;4.60;99.50
13464;DHT22;6804;48.774;9.174;2024-01-16T10:56:36;4.80;99.40
13464;DHT22;6804;48.774;9.174;2024-01-16T10:59:18;5.00;99.40
13464;DHT22;6804;48.774;9.174;2024-01-16T11:01:49;5.10;99.10
13464;DHT22;6804;48.774;9.174;2024-01-16T11:04:20;5.30;98.90
13464;DHT22;6804;48.774;9.174;2024-01-16T11:06:55;5.40;98.60
13464;DHT22;6804;48.774;9.174;2024-01-16T11:09:27;5.60;98.20
13464;DHT22;6804;48.774;9.174;2024-01-16T11:11:59;5.70;97.90
13464;DHT22;6804;48.774;9.174;2024-01-16T11:14:28;5.90;97.80
13464;DHT22;6804;48.774;9.174;2024-01-16T11:17:00;6.00;95.60
13464;DHT22;6804;48.774;9.174;2024-01-16T11:19:28;6.10;96.20
13464;DHT22;6804;48.774;9.174;2024-01-16T11:21:59;6.00;95.10
13464;DHT22;6804;48.774;9.174;2024-01-16T11:24:29;6.00;96.20
13464;DHT22;6804;48.774;9.174;2024-01-16T11:27:02;6.10;96.00
13464;DHT22;6804;48.774;9.174;2024-01-16T11:29:39;6.10;95.70
13464;DHT22;6804;48.774;9.174;2024-01-16T11:32:32;6.00;95.70
13464;DHT22;6804;48.774;9.174;2024-01-16T11:35:08;6.10;96.20
13464;DHT22;6804;48.774;9.174;2024-01-16T11:37:41;6.20;96.10
13464;DHT22;6804;48.774;9.174;2024-01-16T11:40:24;6.30;96.10
13464;DHT22;6804;48.774;9.174;2024-01-16T11:42:55;6.40;94.90
13464;DHT22;6804;48.774;9.174;2024-01-16T11:45:48;6.50;95.10
13464;DHT22;6804;48.774;9.174;2024-01-16T11:48:20;6.70;94.80
13464;DHT22;6804;48.774;9.174;2024-01-16T11:50:48;6.70;94.60
13464;DHT22;6804;48.774;9.174;2024-01-16T11:53:32;6.90;93.80
13464;DHT22;6804;48.774;9.174;2024-01-16T11:56:41;7.00;94.10
13464;DHT22;6804;48.774;9.174;2024-01-16T12:02:26;7.20;92.90
13464;DHT22;6804;48.774;9.174;2024-01-16T12:04:58;7.20;92.90
13464;DHT22;6804;48.774;9.174;2024-01-16T12:07:38;7.30;92.90
13464;DHT22;6804;48.774;9.174;2024-01-16T12:10:09;7.30;92.40
13464;DHT22;6804;48.774;9.174;2024-01-16T12:12:39;7.10;92.20
13464;DHT22;6804;48.774;9.174;2024-01-16T12:15:14;7.20;92.30
13464;DHT22;6804;48.774;9.174;2024-01-16T12:17:56;7.20;91.60
13464;DHT22;6804;48.774;9.174;2024-01-16T12:20:26;7.30;92.60
13464;DHT22;6804;48.774;9.174;2024-01-16T12:22:57;7.30;91.60
13464;DHT22;6804;48.774;9.174;2024-01-16T12:25:26;7.40;91.70
13464;DHT22;6804;48.774;9.174;2024-01-16T12:28:01;7.50;91.50
13464;DHT22;6804;48.774;9.174;2024-01-16T12:30:30;7.60;91.20
13464;DHT22;6804;48.774;9.174;2024-01-16T12:33:08;7.70;91.40
13464;DHT22;6804;48.774;9.174;2024-01-16T12:35:37;7.80;91.10
13464;DHT22;6804;48.774;9.174;2024-01-16T12:38:06;7.80;91.30
13464;DHT22;6804;48.774;9.174;2024-01-16T12:40:36;7.90;90.00
13464;DHT22;6804;48.774;9.174;2024-01-16T12:43:07;7.80;90.50
13464;DHT22;6804;48.774;9.174;2024-01-16T12:45:40;7.70;90.50
13464;DHT22;6804;48.774;9.174;2024-01-16T12:48:08;7.70;90.30
13464;DHT22;6804;48.774;9.174;2024-01-16T12:50:37;7.60;89.70
13464;DHT22;6804;48.774;9.174;2024-01-16T12:53:06;7.60;90.70
13464;DHT22;6804;48.774;9.174;2024-01-16T12:55:35;7.50;89.40
13464;DHT22;6804;48.774;9.174;2024-01-16T12:58:16;6.90;90.40
13464;DHT22;6804;48.774;9.174;2024-01-16T13:00:44;6.80;90.50
13464;DHT22;6804;48.774;9.174;2024-01-16T13:03:15;6.80;90.20
13464;DHT22;6804;48.774;9.174;2024-01-16T13:05:45;6.80;91.20
13464;DHT22;6804;48.774;9.174;2024-01-16T13:08:20;6.90;91.00
13464;DHT22;6804;48.774;9.174;2024-01-16T13:11:02;7.00;91.20
13464;DHT22;6804;48.774;9.174;2024-01-16T13:13:32;7.20;90.70
13464;DHT22;6804;48.774;9.174;2024-01-16T13:16:01;7.30;90.90
13464;DHT22;6804;48.774;9.174;2024-01-16T13:18:30;7.30;90.00
13464;DHT22;6804;48.774;9.174;2024-01-16T13:20:58;7.40;89.40
13464;DHT22;6804;48.774;9.174;2024-01-16T13:23:30;7.20;89.50
13464;DHT22;6804;48.774;9.174;2024-01-16T13:26:01;6.90;90.80
13464;DHT22;6804;48.774;9.174;2024-01-16T13:28:35;7.00;90.80
13464;DHT22;6804;48.774;9.174;2024-01-16T13:31:04;7.10;90.30
13464;DHT22;6804;48.774;9.174;2024-01-16T13:33:33;7.10;89.70
13464;DHT22;6804;48.774;9.174;2024-01-16T13:36:02;7.10;89.30
13464;DHT22;6804;48.774;9.174;2024-01-16T13:38:33;7.10;89.80
13464;DHT22;6804;48.774;9.174;2024-01-16T13:41:01;7.10;90.70
13464;DHT22;6804;48.774;9.174;2024-01-16T13:43:31;7.20;90.10
13464;DHT22;6804;48.774;9.174;2024-01-16T13:46:00;7.20;90.80
13464;DHT22;6804;48.774;9.174;2024-01-16T13:48:32;7.30;90.50
13464;DHT22;6804;48.774;9.174;2024-01-16T13:51:03;7.30;90.60
13464;DHT22;6804;48.774;9.174;2024-01-16T13:53:33;7.20;90.20
13464;DHT22;6804;48.774;9.174;2024-01-16T13:56:04;6.80;90.00
13464;DHT22;6804;48.774;9.174;2024-01-16T13:58:35;6.60;90.10
13464;DHT22;6804;48.774;9.174;2024-01-16T14:01:04;6.60;91.10
13464;DHT22;6804;48.774;9.174;2024-01-16T14:03:32;6.70;91.60
13464;DHT22;6804;48.774;9.174;2024-01-16T14:06:03;6.80;90.20
13464;DHT22;6804;48.774;9.174;2024-01-16T14:08:33;6.80;90.70
13464;DHT22;6804;48.774;9.174;2024-01-16T14:11:01;6.80;90.80
13464;DHT22;6804;48.774;9.174;2024-01-16T14:13:30;6.90;90.30
13464;DHT22;6804;48.774;9.174;2024-01-16T14:16:05;7.00;90.60
13464;DHT22;6804;48.774;9.174;2024-01-16T14:18:37;7.00;90.50
13464;DHT22;6804;48.774;9.174;2024-01-16T14:21:07;6.90;88.70
13464;DHT22;6804;48.774;9.174;2024-01-16T14:23:42;6.90;89.10
13464;DHT22;6804;48.774;9.174;2024-01-16T14:26:14;6.80;88.60
13464;DHT22;6804;48.774;9.174;2024-01-16T14:28:45;6.80;89.40
13464;DHT22;6804;48.774;9.174;2024-01-16T14:31:14;6.70;90.30
13464;DHT22;6804;48.774;9.174;2024-01-16T14:33:44;6.70;90.10
13464;DHT22;6804;48.774;9.174;2024-01-16T14:36:16;6.60;90.00
13464;DHT22;6804;48.774;9.174;2024-01-16T14:38:45;6.50;89.90
13464;DHT22;6804;48.774;9.174;2024-01-16T14:41:15;6.30;89.20
13464;DHT22;6804;48.774;9.174;2024-01-16T14:43:43;6.10;90.20
13464;DHT22;6804;48.774;9.174;2024-01-16T14:46:14;6.10;89.70
13464;DHT22;6804;48.774;9.174;2024-01-16T14:48:44;6.00;89.80
13464;DHT22;6804;48.774;9.174;2024-01-16T14:51:13;6.00;89.90
13464;DHT22;6804;48.774;9.174;2024-01-16T14:53:41;6.00;89.70
13464;DHT22;6804;48.774;9.174;2024-01-16T14:56:11;6.00;90.00
13464;DHT22;6804;48.774;9.174;2024-01-16T14:58:39;5.80;89.80
13464;DHT22;6804;48.774;9.174;2024-01-16T15:01:07;5.80;90.20
13464;DHT22;6804;48.774;9.174;2024-01-16T15:03:39;5.80;90.70
13464;DHT22;6804;48.774;9.174;2024-01-16T15:06:10;5.70;90.40
13464;DHT22;6804;48.774;9.174;2024-01-16T15:08:38;5.80;90.80
13464;DHT22;6804;48.774;9.174;2024-01-16T15:11:06;5.80;90.90
13464;DHT22;6804;48.774;9.174;2024-01-16T15:13:34;5.80;90.50
13464;DHT22;6804;48.774;9.174;2024-01-16T15:16:05;5.80;90.70
13464;DHT22;6804;48.774;9.174;2024-01-16T15:18:34;5.90;90.60
13464;DHT22;6804;48.774;9.174;2024-01-16T15:21:07;5.80;90.50
13464;DHT22;6804;48.774;9.174;2024-01-16T15:23:38;5.80;90.50
13464;DHT22;6804;48.774;9.174;2024-01-16T15:26:08;5.70;90.40
13464;DHT22;6804;48.774;9.174;2024-01-16T15:28:36;5.60;90.60
13464;DHT22;6804;48.774;9.174;2024-01-16T15:31:07;5.50;90.90
13464;DHT22;6804;48.774;9.174;2024-01-16T15:33:37;5.50;91.30
13464;DHT22;6804;48.774;9.174;2024-01-16T15:36:09;5.50;91.20
13464;DHT22;6804;48.774;9.174;2024-01-16T15:38:48;5.50;90.90
13464;DHT22;6804;48.774;9.174;2024-01-16T15:41:16;5.40;90.80
13464;DHT22;6804;48.774;9.174;2024-01-16T15:43:44;5.40;90.90
13464;DHT22;6804;48.774;9.174;2024-01-16T15:46:15;5.40;90.90
13464;DHT22;6804;48.774;9.174;2024-01-16T15:48:47;5.40;90.90
13464;DHT22;6804;48.774;9.174;2024-01-16T15:51:18;5.40;91.50
13464;DHT22;6804;48.774;9.174;2024-01-16T15:53:46;5.30;91.90
13464;DHT22;6804;48.774;9.174;2024-01-16T15:56:14;5.30;92.00
13464;DHT22;6804;48.774;9.174;2024-01-16T15:58:44;5.30;92.30
13464;DHT22;6804;48.774;9.174;2024-01-16T16:01:12;5.30;92.50
13464;DHT22;6804;48.774;9.174;2024-01-16T16:03:39;5.20;92.40
13464;DHT22;6804;48.774;9.174;2024-01-16T16:06:07;5.20;92.70
13464;DHT22;6804;48.774;9.174;2024-01-16T16:08:37;5.10;92.50
13464;DHT22;6804;48.774;9.174;2024-01-16T16:11:06;5.10;93.10
13464;DHT22;6804;48.774;9.174;2024-01-16T16:13:34;5.10;93.30
13464;DHT22;6804;48.774;9.174;2024-01-16T16:16:02;5.00;93.20
13464;DHT22;6804;48.774;9.174;2024-01-16T16:18:30;4.90;93.50
13464;DHT22;6804;48.774;9.174;2024-01-16T16:21:03;4.90;93.80
13464;DHT22;6804;48.774;9.174;2024-01-16T16:23:30;4.90;93.70
13464;DHT22;6804;48.774;9.174;2024-01-16T16:26:00;4.90;93.70
13464;DHT22;6804;48.774;9.174;2024-01-16T16:28:28;4.80;94.30